Time;durP1;ratioP1;P1;durP2;ratioP2;P2;SDS_P1;SDS_P2;PMS_P1;PMS_P2;Temp;Humidity;BMP_temperature;BMP_pressure;BME280_temperature;BME280_humidity;BME280_pressure;Samples;Min_cycle;Max_cycle;Signal;HPM_P1;HPM_P2
2023/09/26 00:00:58;;;;;;;29.45;3.75;;;16.50;89.20;;;;;;5054526;28;20027;-71
2023/09/26 00:03:24;;;;;;;30.67;3.78;;;16.50;89.70;;;;;;5068929;28;20036;-72
2023/09/26 00:05:49;;;;;;;23.45;3.72;;;16.50;89.80;;;;;;5054553;28;20514;-73
2023/09/26 00:08:15;;;;;;;22.52;3.63;;;16.50;90.10;;;;;;5066947;28;20040;-72
2023/09/26 00:10:41;;;;;;;20.45;3.35;;;16.40;90.30;;;;;;5054931;28;20033;-71
2023/09/26 00:13:06;;;;;;;20.27;4.00;;;16.50;90.40;;;;;;5066376;28;20051;-71
2023/09/26 00:15:33;;;;;;;25.90;3.63;;;16.50;90.40;;;;;;5061677;28;20043;-72
2023/09/26 00:17:58;;;;;;;25.45;4.63;;;16.50;90.40;;;;;;5068429;28;20044;-71
2023/09/26 00:20:26;;;;;;;33.83;4.30;;;16.40;90.50;;;;;;5059873;28;20028;-71
2023/09/26 00:22:52;;;;;;;24.20;3.90;;;16.40;90.50;;;;;;5071649;28;20056;-72
2023/09/26 00:25:17;;;;;;;24.33;4.03;;;16.40;90.60;;;;;;5058016;28;20115;-72
2023/09/26 00:27:43;;;;;;;24.20;4.57;;;16.40;90.70;;;;;;5070021;28;20139;-72
2023/09/26 00:30:09;;;;;;;33.20;4.35;;;16.40;90.90;;;;;;5069204;28;20094;-72
2023/09/26 00:32:36;;;;;;;22.90;3.80;;;16.40;90.90;;;;;;5050419;28;20032;-72
2023/09/26 00:35:03;;;;;;;22.17;3.08;;;16.50;90.90;;;;;;5066983;28;20071;-72
2023/09/26 00:37:29;;;;;;;24.98;4.10;;;16.50;90.90;;;;;;5056228;28;20044;-72
2023/09/26 00:39:56;;;;;;;17.35;4.05;;;16.50;91.00;;;;;;5066060;28;20070;-72
2023/09/26 00:42:21;;;;;;;27.60;3.85;;;16.50;90.90;;;;;;5059967;28;20036;-72
2023/09/26 00:44:47;;;;;;;25.63;3.70;;;16.40;91.30;;;;;;5068495;28;20059;-72
2023/09/26 00:47:13;;;;;;;24.13;3.70;;;16.30;91.40;;;;;;5061551;28;20036;-73
2023/09/26 00:49:39;;;;;;;34.33;4.50;;;16.30;91.70;;;;;;5073765;28;20028;-71
2023/09/26 00:52:05;;;;;;;32.22;4.55;;;16.30;91.60;;;;;;5056877;28;20438;-71
2023/09/26 00:54:32;;;;;;;37.20;5.13;;;16.30;91.60;;;;;;5072914;28;20129;-72
2023/09/26 00:56:57;;;;;;;21.75;4.35;;;16.40;91.60;;;;;;5055038;28;20028;-71
2023/09/26 00:59:25;;;;;;;24.75;4.43;;;16.30;91.70;;;;;;5062852;28;20530;-72
2023/09/26 01:01:50;;;;;;;29.15;4.22;;;16.40;91.90;;;;;;5057007;28;21609;-72
2023/09/26 01:04:18;;;;;;;27.73;4.63;;;16.50;91.70;;;;;;5067094;28;20109;-71
2023/09/26 01:06:44;;;;;;;22.52;3.97;;;16.60;91.40;;;;;;5051475;28;20029;-71
2023/09/26 01:09:12;;;;;;;27.65;4.18;;;16.70;91.20;;;;;;5072660;28;20029;-72
2023/09/26 01:11:38;;;;;;;27.85;3.78;;;16.70;91.20;;;;;;5062753;28;20024;-72
2023/09/26 01:14:04;;;;;;;22.38;4.13;;;16.70;91.30;;;;;;5058824;28;20096;-72
2023/09/26 01:16:29;;;;;;;19.05;4.47;;;16.70;91.30;;;;;;5070299;28;20024;-72
2023/09/26 01:18:55;;;;;;;28.38;4.22;;;16.70;91.40;;;;;;5052970;28;20047;-72
2023/09/26 01:21:21;;;;;;;28.95;4.00;;;16.80;91.40;;;;;;5070206;28;20033;-72
2023/09/26 01:23:58;;;;;;;24.65;4.57;;;16.80;91.40;;;;;;5059790;28;20118;-72
2023/09/26 01:26:24;;;;;;;22.13;4.00;;;16.90;91.30;;;;;;5066303;28;20024;-72
2023/09/26 01:28:51;;;;;;;23.15;4.30;;;17.00;91.20;;;;;;5058629;28;20508;-71
2023/09/26 01:31:17;;;;;;;24.38;3.90;;;17.00;90.90;;;;;;5065687;28;20555;-71
2023/09/26 01:33:43;;;;;;;22.90;3.50;;;17.10;90.90;;;;;;5050530;28;20036;-71
2023/09/26 01:36:08;;;;;;;21.65;3.97;;;17.10;90.60;;;;;;5068345;28;20101;-71
2023/09/26 01:38:34;;;;;;;24.70;3.75;;;17.20;90.50;;;;;;5053592;28;20116;-71
2023/09/26 01:41:00;;;;;;;24.67;4.45;;;17.20;90.50;;;;;;5064611;28;20025;-71
2023/09/26 01:43:26;;;;;;;21.80;3.60;;;17.10;90.60;;;;;;5056276;28;20036;-71
2023/09/26 01:45:54;;;;;;;22.27;3.72;;;17.20;90.60;;;;;;5066775;28;20036;-71
2023/09/26 01:48:20;;;;;;;21.92;4.32;;;17.20;90.30;;;;;;5055435;28;20420;-71
2023/09/26 01:50:45;;;;;;;22.52;4.00;;;17.20;90.20;;;;;;5071075;28;20039;-71
2023/09/26 01:53:18;;;;;;;12.85;3.40;;;17.30;90.00;;;;;;5055192;28;20044;-71
2023/09/26 01:55:44;;;;;;;28.05;3.70;;;17.30;90.00;;;;;;5070806;28;20024;-71
2023/09/26 01:58:09;;;;;;;27.05;4.40;;;17.30;90.00;;;;;;5065604;28;20113;-72
2023/09/26 02:00:35;;;;;;;26.95;3.67;;;17.30;89.80;;;;;;5056570;28;20389;-71
2023/09/26 02:03:01;;;;;;;25.48;4.72;;;17.30;89.70;;;;;;5058878;28;20385;-71
2023/09/26 02:05:26;;;;;;;13.95;3.38;;;17.30;89.70;;;;;;5046224;28;20035;-71
2023/09/26 02:07:52;;;;;;;25.98;4.85;;;17.30;89.60;;;;;;5063136;28;20036;-71
2023/09/26 02:10:18;;;;;;;20.05;3.28;;;17.20;90.00;;;;;;5054022;28;20028;-71
2023/09/26 02:12:46;;;;;;;23.48;4.22;;;17.10;90.10;;;;;;5058895;28;20032;-71
2023/09/26 02:15:12;;;;;;;20.02;3.67;;;17.10;90.20;;;;;;5052939;28;20119;-71
2023/09/26 02:17:39;;;;;;;16.65;3.47;;;17.00;90.30;;;;;;5064658;28;20044;-71
2023/09/26 02:20:12;;;;;;;21.05;4.43;;;16.90;90.40;;;;;;5050764;28;20097;-71
2023/09/26 02:22:41;;;;;;;24.58;4.05;;;16.90;90.40;;;;;;5069447;28;20103;-71
2023/09/26 02:25:07;;;;;;;;;;;16.70;90.50;;;;;;5052373;28;20115;-71
2023/09/26 02:27:33;;;;;;;17.60;3.35;;;16.60;90.60;;;;;;5065862;28;20053;-71
2023/09/26 02:29:59;;;;;;;22.67;3.75;;;16.60;90.70;;;;;;5055141;28;20085;-71
2023/09/26 02:32:24;;;;;;;23.70;4.05;;;16.60;90.80;;;;;;5060843;28;20035;-71
2023/09/26 02:34:50;;;;;;;24.63;4.57;;;16.60;90.70;;;;;;5053579;28;20047;-71
2023/09/26 02:37:16;;;;;;;20.73;3.95;;;16.70;90.50;;;;;;5065847;28;20032;-71
2023/09/26 02:39:42;;;;;;;25.52;3.95;;;16.70;90.40;;;;;;5052085;28;20942;-71
2023/09/26 02:42:07;;;;;;;17.77;4.03;;;16.60;90.50;;;;;;5062049;28;20107;-71
2023/09/26 02:44:33;;;;;;;25.20;3.83;;;16.60;90.70;;;;;;5070113;28;20027;-71
2023/09/26 02:46:58;;;;;;;23.00;4.05;;;16.60;91.00;;;;;;5051679;28;20043;-71
2023/09/26 02:49:24;;;;;;;22.02;3.70;;;16.50;90.70;;;;;;5070772;28;20028;-71
2023/09/26 02:51:50;;;;;;;24.35;4.15;;;16.50;90.80;;;;;;5051593;28;20063;-71
2023/09/26 02:54:15;;;;;;;19.60;3.95;;;16.60;90.70;;;;;;5068897;28;20506;-71
2023/09/26 02:56:41;;;;;;;22.80;4.10;;;16.60;90.60;;;;;;5055913;28;20040;-71
2023/09/26 02:59:07;;;;;;;23.20;3.90;;;16.70;90.40;;;;;;5066546;28;20039;-71
2023/09/26 03:01:32;;;;;;;29.13;4.85;;;16.70;90.40;;;;;;5053433;28;20111;-73
2023/09/26 03:03:58;;;;;;;29.70;4.80;;;16.70;90.70;;;;;;5066845;28;20760;-72
2023/09/26 03:06:24;;;;;;;23.33;4.30;;;16.80;90.90;;;;;;5050899;28;20034;-72
2023/09/26 03:08:49;;;;;;;26.95;4.53;;;16.90;90.90;;;;;;5067102;28;20112;-72
2023/09/26 03:11:15;;;;;;;15.63;3.83;;;16.90;90.90;;;;;;5057111;28;20040;-72
2023/09/26 03:13:40;;;;;;;24.85;4.55;;;17.00;91.00;;;;;;5060361;28;20075;-71
2023/09/26 03:16:12;;;;;;;22.50;4.28;;;17.00;91.30;;;;;;5057691;28;20028;-71
2023/09/26 03:18:38;;;;;;;24.58;4.90;;;17.00;91.60;;;;;;5062601;28;20131;-70
2023/09/26 03:21:05;;;;;;;22.48;5.30;;;17.00;91.90;;;;;;5061972;28;20085;-69
2023/09/26 03:23:31;;;;;;;23.70;4.90;;;17.00;92.00;;;;;;5064833;28;20033;-70
2023/09/26 03:25:56;;;;;;;39.85;4.78;;;17.00;92.20;;;;;;5072982;28;20040;-70
2023/09/26 03:28:22;;;;;;;27.58;5.00;;;17.00;92.30;;;;;;5055676;28;20039;-72
2023/09/26 03:30:48;;;;;;;30.25;5.00;;;17.00;92.40;;;;;;5070675;28;20043;-71
2023/09/26 03:33:13;;;;;;;30.50;5.40;;;17.00;92.60;;;;;;5049957;28;20032;-70
2023/09/26 03:35:39;;;;;;;25.52;4.85;;;17.00;92.60;;;;;;5069615;28;20043;-71
2023/09/26 03:38:04;;;;;;;29.77;5.18;;;17.00;92.70;;;;;;5055255;28;20029;-71
2023/09/26 03:40:30;;;;;;;39.10;5.13;;;17.00;92.90;;;;;;5060537;28;20039;-71
2023/09/26 03:42:56;;;;;;;33.92;4.95;;;17.00;93.00;;;;;;5055257;28;20043;-71
2023/09/26 03:45:22;;;;;;;35.60;5.05;;;17.00;93.20;;;;;;5066607;28;20036;-71
2023/09/26 03:47:48;;;;;;;29.85;4.47;;;17.00;93.20;;;;;;5053675;28;21643;-71
2023/09/26 03:50:14;;;;;;;29.95;5.82;;;17.10;93.30;;;;;;5064642;28;20147;-71
2023/09/26 03:52:40;;;;;;;35.47;5.43;;;17.10;93.40;;;;;;5052393;28;20488;-71
2023/09/26 03:55:06;;;;;;;32.83;5.28;;;17.20;93.60;;;;;;5067620;28;20032;-71
2023/09/26 03:57:33;;;;;;;24.75;5.30;;;17.30;93.70;;;;;;5057852;28;20074;-71
2023/09/26 03:59:59;;;;;;;29.70;5.35;;;17.50;93.90;;;;;;5066634;28;20021;-71
2023/09/26 04:02:25;;;;;;;20.58;5.00;;;17.60;93.60;;;;;;5056160;28;20032;-71
2023/09/26 04:04:51;;;;;;;30.52;5.55;;;17.60;93.40;;;;;;5048320;28;20035;-71
2023/09/26 04:07:16;;;;;;;26.48;5.15;;;17.70;93.50;;;;;;5061178;28;20036;-71
2023/09/26 04:09:42;;;;;;;33.35;6.18;;;17.70;93.70;;;;;;5053982;28;20060;-71
2023/09/26 04:12:08;;;;;;;30.77;6.03;;;17.60;93.70;;;;;;5063002;28;20081;-71
2023/09/26 04:14:33;;;;;;;25.08;5.22;;;17.60;93.80;;;;;;5045267;28;20035;-71
2023/09/26 04:17:00;;;;;;;28.27;5.95;;;17.60;93.80;;;;;;5064676;28;20056;-72
2023/09/26 04:19:26;;;;;;;28.42;5.65;;;17.60;93.80;;;;;;5051351;28;20024;-72
2023/09/26 04:21:53;;;;;;;26.50;5.65;;;17.60;93.90;;;;;;5065849;28;20081;-72
2023/09/26 04:24:19;;;;;;;27.42;4.95;;;17.70;93.90;;;;;;5053706;28;20020;-72
2023/09/26 04:26:45;;;;;;;31.45;5.20;;;17.70;94.00;;;;;;5066156;28;20043;-72
2023/09/26 04:29:11;;;;;;;30.00;6.07;;;17.70;94.40;;;;;;5059984;28;20035;-71
2023/09/26 04:31:37;;;;;;;28.38;5.03;;;17.70;94.10;;;;;;5074615;28;20033;-71
2023/09/26 04:34:02;;;;;;;29.65;6.13;;;17.70;94.30;;;;;;5049620;28;20035;-71
2023/09/26 04:36:29;;;;;;;44.63;6.45;;;17.70;94.00;;;;;;5071663;28;20032;-72
2023/09/26 04:38:55;;;;;;;36.70;4.93;;;17.80;94.00;;;;;;5056201;28;20046;-71
2023/09/26 04:41:21;;;;;;;23.65;5.80;;;17.80;94.00;;;;;;5067617;28;20028;-70
2023/09/26 04:43:47;;;;;;;29.88;5.53;;;17.80;94.00;;;;;;5061867;28;20040;-71
2023/09/26 04:46:14;;;;;;;27.83;5.97;;;17.80;94.00;;;;;;5061690;28;20568;-70
2023/09/26 04:48:41;;;;;;;27.23;6.43;;;17.80;94.00;;;;;;5070350;28;20043;-71
2023/09/26 04:51:08;;;;;;;31.67;6.53;;;17.90;94.10;;;;;;5062604;28;20032;-71
2023/09/26 04:53:35;;;;;;;24.08;6.47;;;17.90;94.10;;;;;;5064391;28;20055;-71
2023/09/26 04:56:02;;;;;;;28.52;6.72;;;17.90;94.00;;;;;;5055948;28;20123;-71
2023/09/26 04:58:30;;;;;;;29.27;7.30;;;17.90;94.00;;;;;;5072177;28;20449;-71
2023/09/26 05:00:56;;;;;;;34.53;6.85;;;17.90;94.00;;;;;;5053289;28;20153;-71
2023/09/26 05:03:22;;;;;;;22.95;7.28;;;18.00;94.00;;;;;;5070100;28;20028;-71
2023/09/26 05:05:49;;;;;;;31.00;8.27;;;18.00;94.00;;;;;;5059308;28;20020;-71
2023/09/26 05:08:14;;;;;;;37.42;8.20;;;17.90;94.10;;;;;;5071153;28;20024;-72
2023/09/26 05:10:40;;;;;;;30.35;7.68;;;17.90;94.10;;;;;;5056187;28;20602;-71
2023/09/26 05:13:06;;;;;;;33.47;7.25;;;17.90;94.10;;;;;;5066485;28;20060;-70
2023/09/26 05:15:34;;;;;;;27.65;7.78;;;18.00;94.00;;;;;;5059751;28;20065;-71
2023/09/26 05:18:00;;;;;;;27.83;7.82;;;18.00;94.00;;;;;;5071655;28;20044;-71
2023/09/26 05:20:25;;;;;;;26.13;7.10;;;18.00;94.00;;;;;;5052968;28;20097;-71
2023/09/26 05:22:51;;;;;;;25.45;6.80;;;18.00;94.00;;;;;;5064470;28;20025;-70
2023/09/26 05:25:17;;;;;;;25.70;8.07;;;18.00;94.10;;;;;;5055347;28;20538;-71
2023/09/26 05:27:44;;;;;;;28.35;8.07;;;18.00;94.20;;;;;;5063664;28;20051;-70
2023/09/26 05:33:02;;;;;;;26.45;7.15;;;18.00;94.30;;;;;;5067914;28;20043;-71
2023/09/26 05:35:28;;;;;;;31.52;7.78;;;18.10;94.20;;;;;;5057742;28;20039;-71
2023/09/26 05:37:53;;;;;;;27.48;7.80;;;18.10;94.20;;;;;;5071409;28;20081;-71
2023/09/26 05:40:19;;;;;;;24.02;6.13;;;18.10;94.20;;;;;;5069804;28;20705;-71
2023/09/26 05:42:44;;;;;;;26.02;6.88;;;18.10;94.20;;;;;;5055625;28;20523;-71
2023/09/26 05:45:11;;;;;;;23.67;7.57;;;18.10;94.10;;;;;;5069331;28;20036;-71
2023/09/26 05:47:37;;;;;;;18.48;5.47;;;18.20;94.00;;;;;;5050481;28;20370;-71
2023/09/26 05:50:03;;;;;;;15.85;5.75;;;18.20;93.90;;;;;;5072898;28;20024;-70
2023/09/26 05:52:29;;;;;;;14.80;5.25;;;18.20;93.70;;;;;;5054609;28;20043;-71
2023/09/26 05:54:55;;;;;;;21.30;5.22;;;18.20;93.60;;;;;;5064755;28;20032;-72
2023/09/26 05:57:21;;;;;;;23.35;6.32;;;18.20;93.50;;;;;;5056808;28;20046;-72
2023/09/26 05:59:47;;;;;;;17.40;5.07;;;18.20;93.60;;;;;;5070217;28;21860;-71
2023/09/26 06:02:14;;;;;;;19.77;5.38;;;18.20;93.60;;;;;;5049576;28;20023;-72
2023/09/26 06:04:41;;;;;;;19.92;5.70;;;18.20;93.50;;;;;;5060548;28;20032;-71
2023/09/26 06:07:07;;;;;;;20.60;5.57;;;18.30;93.50;;;;;;5050214;28;20051;-71
2023/09/26 06:09:33;;;;;;;22.02;5.38;;;18.30;93.40;;;;;;5070187;28;21795;-71
2023/09/26 06:11:58;;;;;;;18.52;5.25;;;18.30;93.40;;;;;;5050132;28;20088;-71
2023/09/26 06:14:25;;;;;;;15.18;4.70;;;18.40;93.30;;;;;;5059176;28;20137;-71
2023/09/26 06:16:51;;;;;;;20.98;5.07;;;18.30;93.20;;;;;;5058769;28;20033;-71
2023/09/26 06:19:16;;;;;;;18.42;4.72;;;18.40;93.20;;;;;;5064253;28;20601;-71
2023/09/26 06:21:42;;;;;;;22.35;5.38;;;18.40;93.10;;;;;;5064329;28;20040;-71
2023/09/26 06:24:09;;;;;;;16.27;4.90;;;18.40;93.00;;;;;;5051145;28;20093;-71
2023/09/26 06:26:35;;;;;;;20.90;5.60;;;18.40;93.00;;;;;;5059008;28;20029;-71
2023/09/26 06:29:01;;;;;;;25.33;5.40;;;18.40;93.10;;;;;;5051374;28;20040;-71
2023/09/26 06:31:26;;;;;;;24.90;5.95;;;18.40;92.90;;;;;;5058990;28;20507;-71
2023/09/26 06:33:52;;;;;;;28.95;5.78;;;18.40;92.90;;;;;;5043588;28;20024;-70
2023/09/26 06:36:19;;;;;;;22.67;5.43;;;18.50;92.80;;;;;;5049315;28;20093;-70
2023/09/26 06:38:45;;;;;;;16.75;6.22;;;18.50;92.80;;;;;;5041732;28;20090;-70
2023/09/26 06:41:10;;;;;;;25.15;6.13;;;18.50;92.90;;;;;;5047446;28;20060;-72
2023/09/26 06:43:36;;;;;;;20.83;5.53;;;18.50;92.90;;;;;;5043362;28;20115;-72
2023/09/26 06:46:06;;;;;;;24.55;5.75;;;18.40;92.80;;;;;;5042755;28;20025;-72
2023/09/26 06:48:34;;;;;;;20.05;5.55;;;18.40;92.80;;;;;;5026936;28;20177;-72
2023/09/26 06:51:01;;;;;;;20.33;5.30;;;18.40;92.80;;;;;;5055351;28;20093;-71
2023/09/26 06:53:27;;;;;;;26.38;6.05;;;18.50;92.80;;;;;;5030547;28;20028;-73
2023/09/26 06:56:02;;;;;;;24.13;5.70;;;18.50;92.80;;;;;;5047471;28;20040;-71
2023/09/26 06:58:28;;;;;;;25.17;5.45;;;18.60;92.80;;;;;;5036606;28;20067;-72
2023/09/26 07:00:54;;;;;;;22.17;5.63;;;18.60;92.70;;;;;;5043699;28;20037;-72
2023/09/26 07:03:20;;;;;;;15.85;4.60;;;18.60;92.70;;;;;;5051349;28;20775;-72
2023/09/26 07:05:45;;;;;;;16.85;5.80;;;18.70;92.70;;;;;;5044570;28;20223;-72
2023/09/26 07:08:12;;;;;;;26.08;5.30;;;18.70;92.60;;;;;;5048147;28;20821;-72
2023/09/26 07:10:38;;;;;;;28.90;6.10;;;18.80;92.40;;;;;;5040477;28;20093;-72
2023/09/26 07:13:04;;;;;;;23.27;5.45;;;18.90;92.20;;;;;;5052797;28;20044;-72
2023/09/26 07:15:31;;;;;;;16.27;5.43;;;18.90;92.10;;;;;;5037761;28;20110;-72
2023/09/26 07:17:58;;;;;;;15.45;5.45;;;19.00;92.00;;;;;;5046922;28;20048;-71
2023/09/26 07:20:25;;;;;;;21.90;4.65;;;19.00;92.00;;;;;;5032078;28;20032;-72
2023/09/26 07:22:51;;;;;;;24.58;5.28;;;19.00;91.90;;;;;;5048885;28;21809;-72
2023/09/26 07:25:16;;;;;;;28.85;5.30;;;18.90;92.00;;;;;;5039169;28;20039;-72
2023/09/26 07:27:42;;;;;;;21.17;5.97;;;18.90;92.00;;;;;;5039019;28;20060;-72
2023/09/26 07:30:09;;;;;;;26.05;6.70;;;18.80;92.10;;;;;;5028499;28;20067;-72
2023/09/26 07:32:35;;;;;;;22.10;5.70;;;18.80;92.30;;;;;;5041563;28;20032;-72
2023/09/26 07:35:02;;;;;;;19.83;4.90;;;18.80;92.20;;;;;;5032005;28;20036;-72
2023/09/26 07:37:27;;;;;;;23.25;4.82;;;18.90;92.00;;;;;;5044364;28;20055;-73
2023/09/26 07:39:53;;;;;;;18.08;4.40;;;19.00;91.60;;;;;;5040285;28;20166;-74
2023/09/26 07:42:19;;;;;;;20.63;5.28;;;19.10;91.50;;;;;;5050697;28;20656;-73
2023/09/26 07:44:45;;;;;;;17.83;5.40;;;19.00;91.60;;;;;;5034579;28;20693;-75
2023/09/26 07:47:10;;;;;;;19.25;4.50;;;19.10;91.50;;;;;;5024889;28;20032;-74
2023/09/26 07:49:37;;;;;;;16.42;4.35;;;19.10;91.40;;;;;;5035005;28;20035;-72
2023/09/26 07:52:03;;;;;;;15.80;5.57;;;19.30;91.30;;;;;;5035330;28;20058;-74
2023/09/26 07:54:28;;;;;;;19.70;5.30;;;19.30;91.00;;;;;;5040693;28;20555;-71
2023/09/26 07:56:54;;;;;;;18.90;4.97;;;19.30;90.90;;;;;;5032904;28;20046;-70
2023/09/26 07:59:21;;;;;;;19.83;5.10;;;19.40;90.90;;;;;;5043777;28;20032;-69
2023/09/26 08:01:47;;;;;;;21.23;4.75;;;19.40;90.60;;;;;;5039346;28;20036;-70
2023/09/26 08:04:12;;;;;;;21.13;4.60;;;19.50;90.40;;;;;;5042728;28;20174;-71
2023/09/26 08:06:38;;;;;;;22.13;5.13;;;19.60;90.40;;;;;;5027693;28;20032;-69
2023/09/26 08:09:03;;;;;;;14.85;4.40;;;19.50;90.20;;;;;;5035282;28;20036;-72
2023/09/26 08:11:29;;;;;;;17.88;4.85;;;19.50;90.30;;;;;;5036280;28;20032;-71
2023/09/26 08:13:56;;;;;;;14.60;4.05;;;19.50;90.50;;;;;;5047193;28;20036;-71
2023/09/26 08:16:22;;;;;;;15.40;3.95;;;19.60;90.30;;;;;;5042026;28;20048;-69
2023/09/26 08:18:50;;;;;;;16.38;4.45;;;19.70;90.00;;;;;;5056034;28;20067;-73
2023/09/26 08:21:16;;;;;;;22.75;4.50;;;19.80;89.70;;;;;;5040207;28;20193;-70
2023/09/26 08:23:42;;;;;;;15.23;3.90;;;20.00;89.60;;;;;;5059845;28;20173;-72
2023/09/26 08:26:12;;;;;;;18.60;4.70;;;19.90;89.10;;;;;;5054729;28;20028;-72
2023/09/26 08:28:39;;;;;;;23.63;4.07;;;19.90;88.20;;;;;;5042995;28;20031;-70
2023/09/26 08:33:57;;;;;;;25.05;4.13;;;20.10;86.70;;;;;;5049989;28;20565;-68
2023/09/26 08:36:22;;;;;;;14.93;3.17;;;20.10;86.70;;;;;;5047594;28;20037;-67
2023/09/26 08:38:51;;;;;;;18.20;3.70;;;20.30;86.80;;;;;;5045686;28;20059;-70
2023/09/26 08:41:18;;;;;;;14.45;3.85;;;20.20;85.70;;;;;;5044144;28;20037;-69
2023/09/26 08:43:45;;;;;;;19.67;4.50;;;20.20;85.80;;;;;;5041847;28;20179;-70
2023/09/26 08:46:11;;;;;;;16.63;4.00;;;20.30;85.60;;;;;;5052281;28;20031;-70
2023/09/26 08:48:39;;;;;;;22.60;3.80;;;20.20;85.50;;;;;;5041608;28;20048;-68
2023/09/26 08:51:05;;;;;;;14.48;3.97;;;20.10;85.90;;;;;;5059464;28;20063;-69
2023/09/26 08:53:31;;;;;;;13.57;3.60;;;20.00;86.20;;;;;;5039860;28;20120;-68
2023/09/26 08:55:57;;;;;;;14.85;3.35;;;20.10;86.00;;;;;;5050182;28;20107;-68
2023/09/26 08:58:25;;;;;;;12.52;3.05;;;20.20;85.70;;;;;;5044809;28;20172;-67
2023/09/26 09:00:51;;;;;;;14.50;3.37;;;20.30;85.50;;;;;;5050539;28;20064;-68
2023/09/26 09:03:16;;;;;;;17.35;3.63;;;20.40;84.30;;;;;;5041401;28;20032;-72
2023/09/26 09:05:42;;;;;;;12.93;3.33;;;20.80;83.60;;;;;;5048517;28;20652;-71
2023/09/26 09:08:15;;;;;;;16.30;3.65;;;21.00;81.80;;;;;;5036811;28;20500;-68
2023/09/26 09:10:51;;;;;;;15.00;3.55;;;20.90;82.00;;;;;;5048174;28;20832;-69
2023/09/26 09:13:33;;;;;;;23.63;3.97;;;20.80;82.20;;;;;;5040797;28;20036;-67
2023/09/26 09:16:17;;;;;;;14.63;3.35;;;20.80;82.10;;;;;;5047061;28;20080;-72
2023/09/26 09:18:50;;;;;;;15.63;3.60;;;20.90;82.10;;;;;;5042633;28;20763;-67
2023/09/26 09:21:30;;;;;;;16.75;3.35;;;20.90;82.00;;;;;;5047018;28;20027;-67
2023/09/26 09:23:59;;;;;;;16.25;3.00;;;21.10;81.30;;;;;;5039373;28;20089;-68
2023/09/26 09:26:30;;;;;;;11.20;3.20;;;21.30;80.30;;;;;;5060918;28;20036;-67
2023/09/26 09:28:58;;;;;;;15.23;3.35;;;21.60;80.00;;;;;;5040240;28;20028;-68
2023/09/26 09:31:26;;;;;;;14.52;3.63;;;21.70;79.10;;;;;;5054141;28;20039;-69
2023/09/26 09:33:52;;;;;;;14.20;3.97;;;21.70;77.00;;;;;;5042566;28;20048;-70
2023/09/26 09:36:19;;;;;;;14.63;3.42;;;21.60;77.90;;;;;;5055178;28;20024;-73
2023/09/26 09:38:45;;;;;;;10.00;3.08;;;21.60;77.80;;;;;;5042625;28;20028;-68
2023/09/26 09:41:10;;;;;;;11.82;3.35;;;21.60;77.40;;;;;;5054670;28;20024;-68
2023/09/26 09:43:37;;;;;;;20.25;3.25;;;21.60;77.00;;;;;;5056033;28;20036;-68
2023/09/26 09:46:08;;;;;;;13.18;4.10;;;21.50;77.80;;;;;;5054328;28;20025;-71
2023/09/26 09:48:41;;;;;;;15.88;3.58;;;21.40;78.30;;;;;;5049107;28;20129;-69
2023/09/26 09:51:10;;;;;;;16.58;3.60;;;21.20;79.30;;;;;;5046454;28;20043;-69
2023/09/26 09:53:36;;;;;;;10.45;3.10;;;21.10;80.10;;;;;;5054509;28;20408;-69
2023/09/26 09:56:07;;;;;;;16.77;3.97;;;21.10;80.80;;;;;;5040646;28;20064;-69
2023/09/26 09:58:36;;;;;;;19.75;3.80;;;21.10;80.60;;;;;;5055672;28;20024;-69
2023/09/26 10:01:02;;;;;;;14.10;3.42;;;21.10;81.00;;;;;;5040579;28;20036;-68
2023/09/26 10:03:29;;;;;;;10.98;3.00;;;21.40;80.10;;;;;;5058152;28;20055;-67
2023/09/26 10:05:55;;;;;;;11.85;3.15;;;21.80;78.50;;;;;;5038084;28;20455;-72
2023/09/26 10:08:22;;;;;;;15.27;3.47;;;21.80;78.30;;;;;;5054705;28;20107;-68
2023/09/26 10:10:48;;;;;;;16.45;4.15;;;21.60;78.50;;;;;;5043530;28;20503;-67
2023/09/26 10:13:16;;;;;;;15.25;3.75;;;21.40;79.40;;;;;;5052485;28;20046;-69
2023/09/26 10:16:05;;;;;;;14.25;3.30;;;21.40;79.60;;;;;;5034849;28;20037;-68
2023/09/26 10:18:37;;;;;;;14.98;3.38;;;21.30;80.30;;;;;;5042686;28;20072;-68
2023/09/26 10:21:03;;;;;;;13.65;3.67;;;21.20;80.60;;;;;;5036824;28;20024;-68
2023/09/26 10:23:29;;;;;;;20.17;4.13;;;21.20;80.50;;;;;;5054466;28;20040;-70
2023/09/26 10:25:55;;;;;;;13.95;3.47;;;21.30;80.90;;;;;;5042058;28;20043;-71
2023/09/26 10:28:21;;;;;;;13.73;3.40;;;21.30;80.00;;;;;;5053456;28;20062;-70
2023/09/26 10:30:54;;;;;;;13.35;3.85;;;21.30;80.50;;;;;;5036806;28;20093;-74
2023/09/26 10:33:20;;;;;;;16.38;3.53;;;21.50;80.00;;;;;;5057973;28;20046;-73
2023/09/26 10:35:46;;;;;;;17.40;3.17;;;21.60;80.00;;;;;;5039994;28;20052;-73
2023/09/26 10:38:23;;;;;;;16.23;3.53;;;21.80;78.80;;;;;;5061825;28;20039;-73
2023/09/26 10:40:48;;;;;;;16.45;3.30;;;21.90;77.90;;;;;;5041955;28;20035;-73
2023/09/26 10:43:15;;;;;;;16.95;3.80;;;22.10;77.40;;;;;;5051782;28;20105;-73
2023/09/26 10:45:44;;;;;;;20.85;4.40;;;22.30;76.30;;;;;;5051986;28;20123;-71
2023/09/26 10:48:10;;;;;;;17.10;3.85;;;22.50;75.30;;;;;;5046438;28;21510;-71
2023/09/26 10:50:36;;;;;;;20.05;4.03;;;22.50;74.70;;;;;;5053752;28;20032;-73
2023/09/26 10:53:01;;;;;;;15.85;3.97;;;22.60;74.90;;;;;;5039810;28;20062;-73
2023/09/26 10:55:27;;;;;;;18.50;4.85;;;22.60;75.20;;;;;;5045030;28;20044;-74
2023/09/26 10:57:53;;;;;;;13.98;3.65;;;22.70;74.50;;;;;;5042265;28;20101;-73
2023/09/26 11:00:19;;;;;;;20.27;3.72;;;22.40;74.60;;;;;;5054022;28;20040;-73
2023/09/26 11:02:48;;;;;;;12.75;3.70;;;22.20;76.20;;;;;;5044936;28;20037;-72
2023/09/26 11:05:15;;;;;;;16.33;3.50;;;22.00;76.60;;;;;;5058322;28;20396;-74
2023/09/26 11:07:44;;;;;;;15.93;3.72;;;21.90;76.50;;;;;;5039670;28;20740;-72
2023/09/26 11:10:13;;;;;;;12.43;3.88;;;22.00;76.80;;;;;;5053258;28;20036;-69
2023/09/26 11:12:38;;;;;;;16.60;3.50;;;22.10;75.60;;;;;;5042920;28;20048;-72
2023/09/26 11:15:05;;;;;;;22.15;3.97;;;22.10;75.90;;;;;;5052394;28;20032;-73
2023/09/26 11:17:32;;;;;;;15.10;3.80;;;22.20;76.10;;;;;;5044523;28;20048;-73
2023/09/26 11:19:59;;;;;;;20.77;3.85;;;22.50;74.40;;;;;;5048651;28;20065;-72
2023/09/26 11:22:25;;;;;;;17.33;3.40;;;22.30;75.40;;;;;;5036238;28;20424;-73
2023/09/26 11:25:07;;;;;;;17.95;3.75;;;22.80;73.60;;;;;;5048924;28;20081;-72
2023/09/26 11:27:39;;;;;;;13.07;3.50;;;23.10;72.00;;;;;;5036599;28;20033;-69
2023/09/26 11:30:07;;;;;;;16.35;3.72;;;23.00;72.20;;;;;;5051154;28;20043;-72
2023/09/26 11:32:34;;;;;;;16.42;3.85;;;22.70;73.40;;;;;;5042129;28;20594;-70
2023/09/26 11:35:00;;;;;;;11.82;3.00;;;22.70;73.40;;;;;;5053114;28;20063;-74
2023/09/26 11:37:30;;;;;;;13.23;3.40;;;22.80;73.10;;;;;;5049292;28;20075;-71
2023/09/26 11:39:56;;;;;;;20.88;4.57;;;22.90;72.70;;;;;;5059527;28;20031;-71
2023/09/26 11:42:22;;;;;;;16.98;2.92;;;22.80;72.60;;;;;;5052897;28;20032;-70
2023/09/26 11:44:54;;;;;;;11.50;2.95;;;22.90;72.10;;;;;;5046848;28;20028;-68
2023/09/26 11:47:21;;;;;;;19.42;3.60;;;22.90;72.70;;;;;;5056825;28;21807;-72
2023/09/26 11:49:48;;;;;;;17.88;3.60;;;22.90;72.30;;;;;;5046031;28;20055;-71
2023/09/26 11:52:15;;;;;;;22.35;3.63;;;23.00;72.20;;;;;;5056347;28;20122;-69
2023/09/26 11:54:40;;;;;;;14.50;3.30;;;23.30;71.40;;;;;;5043490;28;20033;-69
2023/09/26 11:57:07;;;;;;;19.00;3.90;;;23.20;70.80;;;;;;5060038;28;20395;-69
2023/09/26 11:59:33;;;;;;;16.10;4.03;;;23.00;71.30;;;;;;5050427;28;22182;-69
2023/09/26 12:02:00;;;;;;;19.30;3.40;;;23.20;71.00;;;;;;5057898;28;20029;-70
2023/09/26 12:04:26;;;;;;;12.38;2.97;;;23.30;70.50;;;;;;5048379;28;20043;-70
2023/09/26 12:06:52;;;;;;;18.77;3.67;;;23.60;68.80;;;;;;5059356;28;20021;-70
2023/09/26 12:09:19;;;;;;;19.05;3.63;;;24.00;67.40;;;;;;5048149;28;20037;-69
2023/09/26 12:11:47;;;;;;;15.88;3.50;;;23.80;67.90;;;;;;5058953;28;20032;-71
2023/09/26 12:14:14;;;;;;;15.93;3.88;;;23.60;68.90;;;;;;5051937;28;20037;-69
2023/09/26 12:16:39;;;;;;;18.17;3.85;;;23.40;69.40;;;;;;5053530;28;20028;-70
2023/09/26 12:19:05;;;;;;;19.23;3.55;;;23.30;70.50;;;;;;5047388;28;20526;-70
2023/09/26 12:21:31;;;;;;;19.10;3.47;;;23.20;70.90;;;;;;5054593;28;20032;-70
2023/09/26 12:23:57;;;;;;;9.10;2.88;;;23.20;70.80;;;;;;5052280;28;20403;-69
2023/09/26 12:26:22;;;;;;;17.90;3.40;;;23.30;70.40;;;;;;5059947;28;20034;-69
2023/09/26 12:28:48;;;;;;;14.18;3.20;;;23.00;71.20;;;;;;5051257;28;20046;-69
2023/09/26 12:31:14;;;;;;;18.20;3.58;;;22.90;71.70;;;;;;5044734;28;20052;-69
2023/09/26 12:33:40;;;;;;;12.27;2.78;;;23.00;71.90;;;;;;5058182;28;20040;-69
2023/09/26 12:36:06;;;;;;;11.18;2.92;;;23.00;71.80;;;;;;5040824;28;20046;-69
2023/09/26 12:38:31;;;;;;;13.90;4.20;;;23.40;71.10;;;;;;5065822;28;20063;-71
2023/09/26 12:40:57;;;;;;;11.32;2.78;;;23.70;68.90;;;;;;5049640;28;20032;-69